sensor_id;sensor_type;location;lat;lon;timestamp;P1;durP1;ratioP1;P2;durP2;ratioP2
10005;SDS011;5042;42.626;23.382;2023-05-31T00:02:06;4.65;;;4.20;;
10005;SDS011;5042;42.626;23.382;2023-05-31T00:04:33;4.60;;;3.33;;
10005;SDS011;5042;42.626;23.382;2023-05-31T00:07:02;6.22;;;4.32;;
10005;SDS011;5042;42.626;23.382;2023-05-31T00:09:28;4.38;;;3.97;;
10005;SDS011;5042;42.626;23.382;2023-05-31T00:11:55;7.03;;;4.40;;
10005;SDS011;5042;42.626;23.382;2023-05-31T00:14:22;4.20;;;3.63;;
10005;SDS011;5042;42.626;23.382;2023-05-31T00:16:48;4.60;;;4.03;;
10005;SDS011;5042;42.626;23.382;2023-05-31T00:19:15;4.40;;;4.00;;
10005;SDS011;5042;42.626;23.382;2023-05-31T00:21:42;6.00;;;4.35;;
10005;SDS011;5042;42.626;23.382;2023-05-31T00:24:11;5.15;;;4.15;;
10005;SDS011;5042;42.626;23.382;2023-05-31T00:26:38;5.03;;;3.60;;
10005;SDS011;5042;42.626;23.382;2023-05-31T00:29:05;5.28;;;3.90;;
10005;SDS011;5042;42.626;23.382;2023-05-31T00:31:32;5.50;;;3.25;;
10005;SDS011;5042;42.626;23.382;2023-05-31T00:33:58;4.38;;;3.60;;
10005;SDS011;5042;42.626;23.382;2023-05-31T00:36:25;3.97;;;3.30;;
10005;SDS011;5042;42.626;23.382;2023-05-31T00:38:52;3.65;;;3.33;;
10005;SDS011;5042;42.626;23.382;2023-05-31T00:41:20;4.53;;;3.35;;
10005;SDS011;5042;42.626;23.382;2023-05-31T00:43:48;3.35;;;3.00;;
10005;SDS011;5042;42.626;23.382;2023-05-31T00:46:17;3.58;;;3.28;;
10005;SDS011;5042;42.626;23.382;2023-05-31T00:48:52;4.00;;;3.60;;
10005;SDS011;5042;42.626;23.382;2023-05-31T00:51:19;3.97;;;3.33;;
10005;SDS011;5042;42.626;23.382;2023-05-31T00:53:46;3.95;;;3.58;;
10005;SDS011;5042;42.626;23.382;2023-05-31T00:56:13;4.47;;;3.90;;
10005;SDS011;5042;42.626;23.382;2023-05-31T00:58:42;4.95;;;4.13;;
10005;SDS011;5042;42.626;23.382;2023-05-31T01:01:11;7.15;;;4.28;;
10005;SDS011;5042;42.626;23.382;2023-05-31T01:03:39;4.93;;;4.25;;
10005;SDS011;5042;42.626;23.382;2023-05-31T01:06:06;6.60;;;4.60;;
10005;SDS011;5042;42.626;23.382;2023-05-31T01:08:33;4.47;;;4.07;;
10005;SDS011;5042;42.626;23.382;2023-05-31T01:11:02;5.97;;;4.28;;
10005;SDS011;5042;42.626;23.382;2023-05-31T01:13:37;4.32;;;3.45;;
10005;SDS011;5042;42.626;23.382;2023-05-31T01:16:10;5.85;;;4.13;;
10005;SDS011;5042;42.626;23.382;2023-05-31T01:18:41;3.80;;;3.40;;
10005;SDS011;5042;42.626;23.382;2023-05-31T01:21:12;3.97;;;3.58;;
10005;SDS011;5042;42.626;23.382;2023-05-31T01:23:47;3.85;;;3.40;;
10005;SDS011;5042;42.626;23.382;2023-05-31T01:26:35;5.25;;;3.90;;
10005;SDS011;5042;42.626;23.382;2023-05-31T01:29:04;3.97;;;3.58;;
10005;SDS011;5042;42.626;23.382;2023-05-31T01:31:34;4.68;;;4.13;;
10005;SDS011;5042;42.626;23.382;2023-05-31T01:34:02;4.95;;;3.78;;
10005;SDS011;5042;42.626;23.382;2023-05-31T01:36:30;3.60;;;3.30;;
10005;SDS011;5042;42.626;23.382;2023-05-31T01:38:57;4.80;;;3.65;;
10005;SDS011;5042;42.626;23.382;2023-05-31T01:41:25;3.50;;;3.20;;
10005;SDS011;5042;42.626;23.382;2023-05-31T01:43:54;5.50;;;3.00;;
10005;SDS011;5042;42.626;23.382;2023-05-31T01:46:22;3.65;;;3.20;;
10005;SDS011;5042;42.626;23.382;2023-05-31T01:48:50;3.63;;;3.08;;
10005;SDS011;5042;42.626;23.382;2023-05-31T01:51:18;4.70;;;3.20;;
10005;SDS011;5042;42.626;23.382;2023-05-31T01:53:46;4.45;;;3.35;;
10005;SDS011;5042;42.626;23.382;2023-05-31T01:56:13;4.05;;;3.35;;
10005;SDS011;5042;42.626;23.382;2023-05-31T01:58:40;4.43;;;3.72;;
10005;SDS011;5042;42.626;23.382;2023-05-31T02:01:13;3.75;;;2.97;;
10005;SDS011;5042;42.626;23.382;2023-05-31T02:03:41;3.88;;;3.47;;
10005;SDS011;5042;42.626;23.382;2023-05-31T02:06:08;5.00;;;3.13;;
10005;SDS011;5042;42.626;23.382;2023-05-31T02:08:37;3.53;;;3.22;;
10005;SDS011;5042;42.626;23.382;2023-05-31T02:11:04;5.07;;;3.47;;
10005;SDS011;5042;42.626;23.382;2023-05-31T02:13:31;3.17;;;2.80;;
10005;SDS011;5042;42.626;23.382;2023-05-31T02:15:58;3.63;;;3.30;;
10005;SDS011;5042;42.626;23.382;2023-05-31T02:18:27;4.30;;;3.22;;
10005;SDS011;5042;42.626;23.382;2023-05-31T02:20:54;3.40;;;3.10;;
10005;SDS011;5042;42.626;23.382;2023-05-31T02:23:21;3.08;;;2.78;;
10005;SDS011;5042;42.626;23.382;2023-05-31T02:25:48;2.72;;;2.50;;
10005;SDS011;5042;42.626;23.382;2023-05-31T02:28:16;3.17;;;2.72;;
10005;SDS011;5042;42.626;23.382;2023-05-31T02:30:52;3.75;;;3.25;;
10005;SDS011;5042;42.626;23.382;2023-05-31T02:33:20;3.33;;;2.90;;
10005;SDS011;5042;42.626;23.382;2023-05-31T02:35:49;6.53;;;3.22;;
10005;SDS011;5042;42.626;23.382;2023-05-31T02:38:15;3.65;;;2.92;;
10005;SDS011;5042;42.626;23.382;2023-05-31T02:40:42;4.22;;;2.63;;
10005;SDS011;5042;42.626;23.382;2023-05-31T02:43:09;3.85;;;2.70;;
10005;SDS011;5042;42.626;23.382;2023-05-31T02:45:36;3.42;;;3.08;;
10005;SDS011;5042;42.626;23.382;2023-05-31T02:48:02;2.78;;;2.58;;
10005;SDS011;5042;42.626;23.382;2023-05-31T02:50:30;3.35;;;2.75;;
10005;SDS011;5042;42.626;23.382;2023-05-31T02:52:58;3.20;;;2.90;;
10005;SDS011;5042;42.626;23.382;2023-05-31T02:55:25;3.30;;;3.00;;
10005;SDS011;5042;42.626;23.382;2023-05-31T02:57:52;4.05;;;3.10;;
10005;SDS011;5042;42.626;23.382;2023-05-31T03:00:19;4.00;;;3.25;;
10005;SDS011;5042;42.626;23.382;2023-05-31T03:02:46;4.80;;;3.65;;
10005;SDS011;5042;42.626;23.382;2023-05-31T03:05:12;4.90;;;4.05;;
10005;SDS011;5042;42.626;23.382;2023-05-31T03:07:39;4.35;;;3.95;;
10005;SDS011;5042;42.626;23.382;2023-05-31T03:10:08;4.57;;;4.10;;
10005;SDS011;5042;42.626;23.382;2023-05-31T03:12:35;4.57;;;4.15;;
10005;SDS011;5042;42.626;23.382;2023-05-31T03:15:02;6.03;;;3.97;;
10005;SDS011;5042;42.626;23.382;2023-05-31T03:17:30;4.68;;;3.95;;
10005;SDS011;5042;42.626;23.382;2023-05-31T03:19:56;5.43;;;3.97;;
10005;SDS011;5042;42.626;23.382;2023-05-31T03:22:23;4.45;;;4.03;;
10005;SDS011;5042;42.626;23.382;2023-05-31T03:24:50;4.40;;;3.90;;
10005;SDS011;5042;42.626;23.382;2023-05-31T03:27:18;5.47;;;4.55;;
10005;SDS011;5042;42.626;23.382;2023-05-31T03:29:45;5.50;;;4.38;;
10005;SDS011;5042;42.626;23.382;2023-05-31T03:32:11;4.80;;;4.30;;
10005;SDS011;5042;42.626;23.382;2023-05-31T03:34:38;5.93;;;4.70;;
10005;SDS011;5042;42.626;23.382;2023-05-31T03:37:05;5.00;;;4.50;;
10005;SDS011;5042;42.626;23.382;2023-05-31T03:39:32;6.60;;;4.60;;
10005;SDS011;5042;42.626;23.382;2023-05-31T03:41:59;8.00;;;5.10;;
10005;SDS011;5042;42.626;23.382;2023-05-31T03:44:28;6.13;;;4.68;;
10005;SDS011;5042;42.626;23.382;2023-05-31T03:46:55;5.18;;;4.50;;
10005;SDS011;5042;42.626;23.382;2023-05-31T03:49:21;10.00;;;5.20;;
10005;SDS011;5042;42.626;23.382;2023-05-31T03:51:48;8.52;;;5.47;;
10005;SDS011;5042;42.626;23.382;2023-05-31T03:54:15;5.47;;;4.47;;
10005;SDS011;5042;42.626;23.382;2023-05-31T03:56:41;7.67;;;5.40;;
10005;SDS011;5042;42.626;23.382;2023-05-31T03:59:08;6.85;;;5.40;;
10005;SDS011;5042;42.626;23.382;2023-05-31T04:01:36;8.43;;;5.97;;
10005;SDS011;5042;42.626;23.382;2023-05-31T04:04:03;7.32;;;5.95;;
10005;SDS011;5042;42.626;23.382;2023-05-31T04:06:30;7.05;;;6.15;;
10005;SDS011;5042;42.626;23.382;2023-05-31T04:08:57;7.32;;;5.70;;
10005;SDS011;5042;42.626;23.382;2023-05-31T04:11:23;8.02;;;5.78;;
10005;SDS011;5042;42.626;23.382;2023-05-31T04:13:51;8.50;;;6.15;;
10005;SDS011;5042;42.626;23.382;2023-05-31T04:16:18;8.38;;;5.93;;
10005;SDS011;5042;42.626;23.382;2023-05-31T04:18:46;9.65;;;6.18;;
10005;SDS011;5042;42.626;23.382;2023-05-31T04:21:13;8.93;;;5.95;;
10005;SDS011;5042;42.626;23.382;2023-05-31T04:23:40;9.15;;;6.30;;
10005;SDS011;5042;42.626;23.382;2023-05-31T04:26:06;6.70;;;5.50;;
10005;SDS011;5042;42.626;23.382;2023-05-31T04:28:33;7.40;;;5.90;;
10005;SDS011;5042;42.626;23.382;2023-05-31T04:31:00;9.13;;;5.95;;
10005;SDS011;5042;42.626;23.382;2023-05-31T04:33:27;8.70;;;6.00;;
10005;SDS011;5042;42.626;23.382;2023-05-31T04:35:55;9.60;;;6.38;;
10005;SDS011;5042;42.626;23.382;2023-05-31T04:38:24;7.10;;;5.57;;
10005;SDS011;5042;42.626;23.382;2023-05-31T04:40:52;7.63;;;6.13;;
10005;SDS011;5042;42.626;23.382;2023-05-31T04:43:20;7.13;;;5.60;;
10005;SDS011;5042;42.626;23.382;2023-05-31T04:45:48;7.10;;;5.47;;
10005;SDS011;5042;42.626;23.382;2023-05-31T04:48:16;8.35;;;5.70;;
10005;SDS011;5042;42.626;23.382;2023-05-31T04:50:43;8.02;;;6.38;;
10005;SDS011;5042;42.626;23.382;2023-05-31T04:53:12;9.05;;;6.38;;
10005;SDS011;5042;42.626;23.382;2023-05-31T04:55:39;9.10;;;5.70;;
10005;SDS011;5042;42.626;23.382;2023-05-31T04:58:06;7.93;;;5.82;;
10005;SDS011;5042;42.626;23.382;2023-05-31T05:00:33;10.38;;;5.95;;
10005;SDS011;5042;42.626;23.382;2023-05-31T05:03:02;9.68;;;6.32;;
10005;SDS011;5042;42.626;23.382;2023-05-31T05:05:29;8.15;;;5.90;;
10005;SDS011;5042;42.626;23.382;2023-05-31T05:07:55;9.15;;;6.10;;
10005;SDS011;5042;42.626;23.382;2023-05-31T05:10:24;12.32;;;6.40;;
10005;SDS011;5042;42.626;23.382;2023-05-31T05:12:51;8.77;;;6.20;;
10005;SDS011;5042;42.626;23.382;2023-05-31T05:15:18;9.85;;;6.38;;
10005;SDS011;5042;42.626;23.382;2023-05-31T05:17:44;9.85;;;6.18;;
10005;SDS011;5042;42.626;23.382;2023-05-31T05:20:11;10.68;;;6.40;;
10005;SDS011;5042;42.626;23.382;2023-05-31T05:22:38;8.73;;;5.75;;
10005;SDS011;5042;42.626;23.382;2023-05-31T05:25:07;9.77;;;5.78;;
10005;SDS011;5042;42.626;23.382;2023-05-31T05:27:35;7.13;;;5.88;;
10005;SDS011;5042;42.626;23.382;2023-05-31T05:30:02;12.45;;;6.15;;
10005;SDS011;5042;42.626;23.382;2023-05-31T05:32:30;7.10;;;5.82;;
10005;SDS011;5042;42.626;23.382;2023-05-31T05:34:56;8.98;;;6.15;;
10005;SDS011;5042;42.626;23.382;2023-05-31T05:37:23;12.20;;;6.60;;
10005;SDS011;5042;42.626;23.382;2023-05-31T05:39:50;8.48;;;6.45;;
10005;SDS011;5042;42.626;23.382;2023-05-31T05:42:17;8.10;;;6.53;;
10005;SDS011;5042;42.626;23.382;2023-05-31T05:44:45;10.35;;;6.40;;
10005;SDS011;5042;42.626;23.382;2023-05-31T05:47:12;8.85;;;5.72;;
10005;SDS011;5042;42.626;23.382;2023-05-31T05:49:39;10.25;;;5.80;;
10005;SDS011;5042;42.626;23.382;2023-05-31T05:52:06;6.55;;;5.25;;
10005;SDS011;5042;42.626;23.382;2023-05-31T05:54:33;6.03;;;5.43;;
10005;SDS011;5042;42.626;23.382;2023-05-31T05:56:59;7.13;;;5.68;;
10005;SDS011;5042;42.626;23.382;2023-05-31T05:59:27;7.38;;;5.43;;
10005;SDS011;5042;42.626;23.382;2023-05-31T06:01:55;6.72;;;4.55;;
10005;SDS011;5042;42.626;23.382;2023-05-31T06:04:21;14.63;;;6.78;;
10005;SDS011;5042;42.626;23.382;2023-05-31T06:06:48;7.55;;;5.90;;
10005;SDS011;5042;42.626;23.382;2023-05-31T06:09:15;5.90;;;4.78;;
10005;SDS011;5042;42.626;23.382;2023-05-31T06:11:42;6.40;;;5.10;;
10005;SDS011;5042;42.626;23.382;2023-05-31T06:14:09;9.07;;;5.60;;
10005;SDS011;5042;42.626;23.382;2023-05-31T06:16:35;7.47;;;5.43;;
10005;SDS011;5042;42.626;23.382;2023-05-31T06:19:04;9.68;;;5.88;;
10005;SDS011;5042;42.626;23.382;2023-05-31T06:21:30;10.25;;;6.60;;
10005;SDS011;5042;42.626;23.382;2023-05-31T06:23:57;7.93;;;5.82;;
10005;SDS011;5042;42.626;23.382;2023-05-31T06:26:24;7.95;;;5.82;;
10005;SDS011;5042;42.626;23.382;2023-05-31T06:28:51;7.10;;;5.97;;
10005;SDS011;5042;42.626;23.382;2023-05-31T06:31:17;12.88;;;6.15;;
10005;SDS011;5042;42.626;23.382;2023-05-31T06:33:45;12.27;;;7.00;;
10005;SDS011;5042;42.626;23.382;2023-05-31T06:36:15;10.23;;;6.72;;
10005;SDS011;5042;42.626;23.382;2023-05-31T06:38:41;8.13;;;6.00;;
10005;SDS011;5042;42.626;23.382;2023-05-31T06:41:08;9.63;;;6.00;;
10005;SDS011;5042;42.626;23.382;2023-05-31T06:43:35;9.30;;;6.00;;
10005;SDS011;5042;42.626;23.382;2023-05-31T06:46:02;6.18;;;5.53;;
10005;SDS011;5042;42.626;23.382;2023-05-31T06:48:32;7.65;;;5.38;;
10005;SDS011;5042;42.626;23.382;2023-05-31T06:50:59;6.88;;;4.60;;
10005;SDS011;5042;42.626;23.382;2023-05-31T06:53:27;5.88;;;5.25;;
10005;SDS011;5042;42.626;23.382;2023-05-31T06:55:54;9.32;;;6.28;;
10005;SDS011;5042;42.626;23.382;2023-05-31T06:58:21;7.55;;;5.20;;
10005;SDS011;5042;42.626;23.382;2023-05-31T07:00:48;7.72;;;5.65;;
10005;SDS011;5042;42.626;23.382;2023-05-31T07:03:14;7.97;;;5.40;;
10005;SDS011;5042;42.626;23.382;2023-05-31T07:05:41;7.03;;;5.25;;
10005;SDS011;5042;42.626;23.382;2023-05-31T07:08:09;6.78;;;5.53;;
10005;SDS011;5042;42.626;23.382;2023-05-31T07:10:37;7.20;;;4.97;;
10005;SDS011;5042;42.626;23.382;2023-05-31T07:13:04;6.03;;;4.80;;
10005;SDS011;5042;42.626;23.382;2023-05-31T07:15:30;9.63;;;5.45;;
10005;SDS011;5042;42.626;23.382;2023-05-31T07:17:57;5.95;;;5.35;;
10005;SDS011;5042;42.626;23.382;2023-05-31T07:20:24;6.60;;;4.93;;
10005;SDS011;5042;42.626;23.382;2023-05-31T07:22:50;6.95;;;4.72;;
10005;SDS011;5042;42.626;23.382;2023-05-31T07:25:17;11.30;;;6.03;;
10005;SDS011;5042;42.626;23.382;2023-05-31T07:27:45;7.85;;;4.80;;
10005;SDS011;5042;42.626;23.382;2023-05-31T07:30:12;5.43;;;4.65;;
10005;SDS011;5042;42.626;23.382;2023-05-31T07:32:39;4.78;;;4.28;;
10005;SDS011;5042;42.626;23.382;2023-05-31T07:35:06;6.53;;;4.25;;
10005;SDS011;5042;42.626;23.382;2023-05-31T07:37:33;5.53;;;4.38;;
10005;SDS011;5042;42.626;23.382;2023-05-31T07:40:00;4.63;;;4.22;;
10005;SDS011;5042;42.626;23.382;2023-05-31T07:42:27;7.80;;;4.55;;
10005;SDS011;5042;42.626;23.382;2023-05-31T07:44:55;6.65;;;4.40;;
10005;SDS011;5042;42.626;23.382;2023-05-31T07:47:21;6.35;;;4.30;;
10005;SDS011;5042;42.626;23.382;2023-05-31T07:49:49;7.85;;;4.15;;
10005;SDS011;5042;42.626;23.382;2023-05-31T07:52:16;5.70;;;4.63;;
10005;SDS011;5042;42.626;23.382;2023-05-31T07:54:46;7.50;;;4.53;;
10005;SDS011;5042;42.626;23.382;2023-05-31T07:57:13;7.20;;;4.22;;
10005;SDS011;5042;42.626;23.382;2023-05-31T07:59:40;5.30;;;4.57;;
10005;SDS011;5042;42.626;23.382;2023-05-31T08:02:08;6.97;;;4.68;;
10005;SDS011;5042;42.626;23.382;2023-05-31T08:04:35;4.70;;;4.15;;
10005;SDS011;5042;42.626;23.382;2023-05-31T08:07:02;3.90;;;3.60;;
10005;SDS011;5042;42.626;23.382;2023-05-31T08:09:29;6.95;;;3.80;;
10005;SDS011;5042;42.626;23.382;2023-05-31T08:11:55;4.85;;;3.78;;
10005;SDS011;5042;42.626;23.382;2023-05-31T08:14:22;7.78;;;4.70;;
10005;SDS011;5042;42.626;23.382;2023-05-31T08:16:49;14.10;;;5.57;;
10005;SDS011;5042;42.626;23.382;2023-05-31T08:19:17;7.90;;;4.00;;
10005;SDS011;5042;42.626;23.382;2023-05-31T08:21:45;7.18;;;4.25;;
10005;SDS011;5042;42.626;23.382;2023-05-31T08:24:12;5.13;;;4.70;;
10005;SDS011;5042;42.626;23.382;2023-05-31T08:26:39;5.90;;;4.68;;
10005;SDS011;5042;42.626;23.382;2023-05-31T08:29:06;6.55;;;4.72;;
10005;SDS011;5042;42.626;23.382;2023-05-31T08:31:33;6.78;;;4.38;;
10005;SDS011;5042;42.626;23.382;2023-05-31T08:34:00;4.55;;;4.10;;
10005;SDS011;5042;42.626;23.382;2023-05-31T08:36:29;5.57;;;4.10;;
10005;SDS011;5042;42.626;23.382;2023-05-31T08:38:56;5.30;;;4.15;;
10005;SDS011;5042;42.626;23.382;2023-05-31T08:41:24;5.20;;;4.20;;
10005;SDS011;5042;42.626;23.382;2023-05-31T08:43:53;10.07;;;7.93;;
10005;SDS011;5042;42.626;23.382;2023-05-31T08:46:20;5.50;;;4.90;;
10005;SDS011;5042;42.626;23.382;2023-05-31T08:48:49;5.65;;;4.72;;
10005;SDS011;5042;42.626;23.382;2023-05-31T08:51:19;8.25;;;5.55;;
10005;SDS011;5042;42.626;23.382;2023-05-31T08:53:51;9.40;;;6.13;;
10005;SDS011;5042;42.626;23.382;2023-05-31T08:56:20;5.38;;;4.85;;
10005;SDS011;5042;42.626;23.382;2023-05-31T08:58:48;5.03;;;4.35;;
10005;SDS011;5042;42.626;23.382;2023-05-31T09:01:16;5.00;;;4.20;;
10005;SDS011;5042;42.626;23.382;2023-05-31T09:03:44;5.22;;;4.10;;
10005;SDS011;5042;42.626;23.382;2023-05-31T09:06:11;5.32;;;4.82;;
10005;SDS011;5042;42.626;23.382;2023-05-31T09:08:38;7.22;;;4.78;;
10005;SDS011;5042;42.626;23.382;2023-05-31T09:11:06;5.10;;;4.60;;
10005;SDS011;5042;42.626;23.382;2023-05-31T09:13:34;4.60;;;4.20;;
10005;SDS011;5042;42.626;23.382;2023-05-31T09:16:01;8.45;;;4.65;;
10005;SDS011;5042;42.626;23.382;2023-05-31T09:18:28;5.15;;;4.03;;
10005;SDS011;5042;42.626;23.382;2023-05-31T09:21:06;5.90;;;5.13;;
10005;SDS011;5042;42.626;23.382;2023-05-31T09:23:34;6.28;;;4.70;;
10005;SDS011;5042;42.626;23.382;2023-05-31T09:26:00;9.23;;;4.82;;
10005;SDS011;5042;42.626;23.382;2023-05-31T09:28:32;7.97;;;4.72;;
10005;SDS011;5042;42.626;23.382;2023-05-31T09:31:00;5.47;;;4.63;;
10005;SDS011;5042;42.626;23.382;2023-05-31T09:33:37;7.15;;;4.80;;
10005;SDS011;5042;42.626;23.382;2023-05-31T09:36:06;6.35;;;4.40;;
10005;SDS011;5042;42.626;23.382;2023-05-31T09:38:33;7.22;;;4.82;;
10005;SDS011;5042;42.626;23.382;2023-05-31T09:41:11;5.68;;;5.00;;
10005;SDS011;5042;42.626;23.382;2023-05-31T09:43:40;8.35;;;5.43;;
10005;SDS011;5042;42.626;23.382;2023-05-31T09:46:11;6.80;;;6.07;;
10005;SDS011;5042;42.626;23.382;2023-05-31T09:48:38;7.35;;;6.10;;
10005;SDS011;5042;42.626;23.382;2023-05-31T09:51:06;6.32;;;5.65;;
10005;SDS011;5042;42.626;23.382;2023-05-31T09:53:36;6.57;;;5.47;;
10005;SDS011;5042;42.626;23.382;2023-05-31T09:56:07;7.97;;;5.93;;
10005;SDS011;5042;42.626;23.382;2023-05-31T09:58:35;8.00;;;6.20;;
10005;SDS011;5042;42.626;23.382;2023-05-31T10:01:03;5.85;;;5.25;;
10005;SDS011;5042;42.626;23.382;2023-05-31T10:03:30;8.55;;;6.03;;
10005;SDS011;5042;42.626;23.382;2023-05-31T10:05:58;7.35;;;5.55;;
10005;SDS011;5042;42.626;23.382;2023-05-31T10:08:26;9.25;;;6.35;;
10005;SDS011;5042;42.626;23.382;2023-05-31T10:10:53;7.90;;;5.47;;
10005;SDS011;5042;42.626;23.382;2023-05-31T10:13:21;7.65;;;5.63;;
10005;SDS011;5042;42.626;23.382;2023-05-31T10:15:52;5.10;;;4.60;;
10005;SDS011;5042;42.626;23.382;2023-05-31T10:18:22;6.65;;;5.18;;
10005;SDS011;5042;42.626;23.382;2023-05-31T10:20:55;6.38;;;5.30;;
10005;SDS011;5042;42.626;23.382;2023-05-31T10:23:26;6.22;;;4.35;;
10005;SDS011;5042;42.626;23.382;2023-05-31T10:25:55;4.53;;;3.97;;
10005;SDS011;5042;42.626;23.382;2023-05-31T10:28:31;20.23;;;12.55;;
10005;SDS011;5042;42.626;23.382;2023-05-31T10:31:03;11.00;;;6.68;;
10005;SDS011;5042;42.626;23.382;2023-05-31T10:33:31;5.70;;;5.07;;
10005;SDS011;5042;42.626;23.382;2023-05-31T10:35:59;9.20;;;6.45;;
10005;SDS011;5042;42.626;23.382;2023-05-31T10:38:27;6.97;;;4.75;;
10005;SDS011;5042;42.626;23.382;2023-05-31T10:41:01;7.03;;;4.80;;
10005;SDS011;5042;42.626;23.382;2023-05-31T10:43:34;10.93;;;5.65;;
10005;SDS011;5042;42.626;23.382;2023-05-31T10:46:06;8.82;;;5.47;;
10005;SDS011;5042;42.626;23.382;2023-05-31T10:48:41;6.03;;;4.40;;
10005;SDS011;5042;42.626;23.382;2023-05-31T10:51:12;6.57;;;3.92;;
10005;SDS011;5042;42.626;23.382;2023-05-31T10:53:43;6.30;;;3.88;;
10005;SDS011;5042;42.626;23.382;2023-05-31T10:56:12;4.10;;;3.35;;
10005;SDS011;5042;42.626;23.382;2023-05-31T10:58:40;6.55;;;4.05;;
10005;SDS011;5042;42.626;23.382;2023-05-31T11:01:08;9.27;;;4.03;;
10005;SDS011;5042;42.626;23.382;2023-05-31T11:03:44;5.03;;;3.67;;
10005;SDS011;5042;42.626;23.382;2023-05-31T11:06:14;3.40;;;3.08;;
10005;SDS011;5042;42.626;23.382;2023-05-31T11:08:58;3.78;;;2.92;;
10005;SDS011;5042;42.626;23.382;2023-05-31T11:11:42;3.50;;;2.40;;
10005;SDS011;5042;42.626;23.382;2023-05-31T11:14:22;4.72;;;3.13;;
10005;SDS011;5042;42.626;23.382;2023-05-31T11:19:41;3.50;;;2.80;;
10005;SDS011;5042;42.626;23.382;2023-05-31T11:22:10;4.65;;;3.63;;
10005;SDS011;5042;42.626;23.382;2023-05-31T11:24:48;3.40;;;3.08;;
10005;SDS011;5042;42.626;23.382;2023-05-31T11:27:19;5.78;;;3.08;;
10005;SDS011;5042;42.626;23.382;2023-05-31T11:29:55;6.50;;;3.35;;
10005;SDS011;5042;42.626;23.382;2023-05-31T11:35:28;3.83;;;3.40;;
10005;SDS011;5042;42.626;23.382;2023-05-31T11:38:01;8.07;;;3.20;;
10005;SDS011;5042;42.626;23.382;2023-05-31T11:40:29;3.55;;;3.25;;
10005;SDS011;5042;42.626;23.382;2023-05-31T11:43:07;4.70;;;2.92;;
10005;SDS011;5042;42.626;23.382;2023-05-31T11:45:39;4.20;;;3.28;;
10005;SDS011;5042;42.626;23.382;2023-05-31T11:51:05;3.80;;;3.42;;
10005;SDS011;5042;42.626;23.382;2023-05-31T11:53:32;4.30;;;3.22;;
10005;SDS011;5042;42.626;23.382;2023-05-31T11:55:59;4.68;;;3.15;;
10005;SDS011;5042;42.626;23.382;2023-05-31T11:58:25;4.32;;;3.40;;
10005;SDS011;5042;42.626;23.382;2023-05-31T12:00:56;3.45;;;2.92;;
10005;SDS011;5042;42.626;23.382;2023-05-31T12:03:23;5.05;;;3.28;;
10005;SDS011;5042;42.626;23.382;2023-05-31T12:05:51;5.20;;;3.65;;
10005;SDS011;5042;42.626;23.382;2023-05-31T12:08:23;4.93;;;4.20;;
10005;SDS011;5042;42.626;23.382;2023-05-31T12:10:51;8.07;;;4.13;;
10005;SDS011;5042;42.626;23.382;2023-05-31T12:13:19;7.85;;;4.57;;
10005;SDS011;5042;42.626;23.382;2023-05-31T12:15:52;6.60;;;4.03;;
10005;SDS011;5042;42.626;23.382;2023-05-31T12:18:21;10.75;;;5.00;;
10005;SDS011;5042;42.626;23.382;2023-05-31T12:20:48;4.57;;;3.90;;
10005;SDS011;5042;42.626;23.382;2023-05-31T12:23:15;4.50;;;3.47;;
10005;SDS011;5042;42.626;23.382;2023-05-31T12:25:46;5.85;;;3.58;;
10005;SDS011;5042;42.626;23.382;2023-05-31T12:28:14;5.45;;;3.88;;
10005;SDS011;5042;42.626;23.382;2023-05-31T12:30:43;5.55;;;3.50;;
10005;SDS011;5042;42.626;23.382;2023-05-31T12:33:10;6.78;;;3.90;;
10005;SDS011;5042;42.626;23.382;2023-05-31T12:35:40;3.58;;;3.05;;
10005;SDS011;5042;42.626;23.382;2023-05-31T12:38:08;4.38;;;3.15;;
10005;SDS011;5042;42.626;23.382;2023-05-31T12:40:38;4.50;;;3.50;;
10005;SDS011;5042;42.626;23.382;2023-05-31T12:43:09;4.60;;;3.65;;
10005;SDS011;5042;42.626;23.382;2023-05-31T12:45:38;3.25;;;2.85;;
10005;SDS011;5042;42.626;23.382;2023-05-31T12:48:06;6.53;;;3.17;;
10005;SDS011;5042;42.626;23.382;2023-05-31T12:50:35;3.72;;;2.90;;
10005;SDS011;5042;42.626;23.382;2023-05-31T12:53:01;3.10;;;2.85;;
10005;SDS011;5042;42.626;23.382;2023-05-31T12:55:32;4.57;;;3.13;;
10005;SDS011;5042;42.626;23.382;2023-05-31T12:57:59;4.18;;;3.15;;
10005;SDS011;5042;42.626;23.382;2023-05-31T13:00:27;4.30;;;3.00;;
10005;SDS011;5042;42.626;23.382;2023-05-31T13:02:55;3.78;;;2.70;;
10005;SDS011;5042;42.626;23.382;2023-05-31T13:05:22;3.47;;;3.15;;
10005;SDS011;5042;42.626;23.382;2023-05-31T13:07:50;8.18;;;4.18;;
10005;SDS011;5042;42.626;23.382;2023-05-31T13:10:17;10.40;;;3.72;;
10005;SDS011;5042;42.626;23.382;2023-05-31T13:12:44;3.95;;;3.22;;
10005;SDS011;5042;42.626;23.382;2023-05-31T13:15:11;5.07;;;3.08;;
10005;SDS011;5042;42.626;23.382;2023-05-31T13:17:39;3.70;;;3.30;;
10005;SDS011;5042;42.626;23.382;2023-05-31T13:20:06;4.95;;;3.50;;
10005;SDS011;5042;42.626;23.382;2023-05-31T13:22:34;4.93;;;3.72;;
10005;SDS011;5042;42.626;23.382;2023-05-31T13:25:00;9.07;;;3.85;;
10005;SDS011;5042;42.626;23.382;2023-05-31T13:27:29;3.85;;;3.45;;
10005;SDS011;5042;42.626;23.382;2023-05-31T13:29:55;5.72;;;3.72;;
10005;SDS011;5042;42.626;23.382;2023-05-31T13:32:22;3.83;;;3.50;;
10005;SDS011;5042;42.626;23.382;2023-05-31T13:34:51;6.30;;;4.32;;
10005;SDS011;5042;42.626;23.382;2023-05-31T13:37:18;5.03;;;4.07;;
10005;SDS011;5042;42.626;23.382;2023-05-31T13:39:46;6.18;;;3.88;;
10005;SDS011;5042;42.626;23.382;2023-05-31T13:42:13;4.80;;;3.70;;
10005;SDS011;5042;42.626;23.382;2023-05-31T13:44:40;6.13;;;4.38;;
10005;SDS011;5042;42.626;23.382;2023-05-31T13:47:07;8.25;;;4.05;;
10005;SDS011;5042;42.626;23.382;2023-05-31T13:49:34;6.63;;;4.72;;
10005;SDS011;5042;42.626;23.382;2023-05-31T13:52:03;8.27;;;3.80;;
10005;SDS011;5042;42.626;23.382;2023-05-31T13:54:32;5.88;;;3.95;;
10005;SDS011;5042;42.626;23.382;2023-05-31T13:56:59;4.88;;;4.15;;
10005;SDS011;5042;42.626;23.382;2023-05-31T13:59:26;4.88;;;4.03;;
10005;SDS011;5042;42.626;23.382;2023-05-31T14:01:53;4.63;;;3.50;;
10005;SDS011;5042;42.626;23.382;2023-05-31T14:04:19;5.28;;;3.83;;
10005;SDS011;5042;42.626;23.382;2023-05-31T14:06:46;5.43;;;3.63;;
10005;SDS011;5042;42.626;23.382;2023-05-31T14:09:15;6.90;;;4.28;;
10005;SDS011;5042;42.626;23.382;2023-05-31T14:11:42;9.52;;;4.20;;
10005;SDS011;5042;42.626;23.382;2023-05-31T14:14:09;6.80;;;4.20;;
10005;SDS011;5042;42.626;23.382;2023-05-31T14:16:35;6.57;;;3.88;;
10005;SDS011;5042;42.626;23.382;2023-05-31T14:19:02;5.28;;;3.92;;
10005;SDS011;5042;42.626;23.382;2023-05-31T14:21:29;4.95;;;3.85;;
10005;SDS011;5042;42.626;23.382;2023-05-31T14:23:57;5.65;;;3.90;;
10005;SDS011;5042;42.626;23.382;2023-05-31T14:26:25;8.70;;;5.88;;
10005;SDS011;5042;42.626;23.382;2023-05-31T14:28:52;5.22;;;4.13;;
10005;SDS011;5042;42.626;23.382;2023-05-31T14:31:19;4.13;;;3.47;;
10005;SDS011;5042;42.626;23.382;2023-05-31T14:33:46;7.43;;;4.07;;
10005;SDS011;5042;42.626;23.382;2023-05-31T14:36:13;6.32;;;4.90;;
10005;SDS011;5042;42.626;23.382;2023-05-31T14:38:39;6.70;;;4.63;;
10005;SDS011;5042;42.626;23.382;2023-05-31T14:41:06;5.97;;;4.70;;
10005;SDS011;5042;42.626;23.382;2023-05-31T14:43:34;6.65;;;4.50;;
10005;SDS011;5042;42.626;23.382;2023-05-31T14:46:01;7.22;;;4.57;;
10005;SDS011;5042;42.626;23.382;2023-05-31T14:48:28;7.20;;;4.95;;
10005;SDS011;5042;42.626;23.382;2023-05-31T14:50:54;6.55;;;4.85;;
10005;SDS011;5042;42.626;23.382;2023-05-31T14:53:21;7.93;;;5.15;;
10005;SDS011;5042;42.626;23.382;2023-05-31T14:55:48;10.05;;;5.13;;
10005;SDS011;5042;42.626;23.382;2023-05-31T14:58:14;7.78;;;4.63;;
10005;SDS011;5042;42.626;23.382;2023-05-31T15:00:42;4.28;;;3.88;;
10005;SDS011;5042;42.626;23.382;2023-05-31T15:03:09;5.82;;;3.53;;